createdAt,value
2022-11-24T00:04:45.964Z,100037.03
2022-11-24T00:10:06.985Z,100035.31
2022-11-24T00:15:27.851Z,100027.66
2022-11-24T00:20:54.437Z,100027.63
2022-11-24T00:26:20.534Z,100026.78
2022-11-24T00:31:42.037Z,100035.19
2022-11-24T00:37:02.490Z,100035.19
2022-11-24T00:42:23.287Z,100043.66
2022-11-24T00:47:43.682Z,100039.41
2022-11-24T00:53:04.459Z,100031.72
2022-11-24T00:58:25.386Z,100037.63
2022-11-24T01:03:47.340Z,100041.84
2022-11-24T01:09:07.902Z,100050.28
2022-11-24T01:14:28.700Z,100058.75
2022-11-24T01:19:49.191Z,100061.25
2022-11-24T01:25:11.655Z,100062.91
2022-11-24T01:30:32.189Z,100070.53
2022-11-24T01:35:53.622Z,100089.13
2022-11-24T01:41:17.563Z,100085.69
2022-11-24T01:46:48.642Z,100088.28
2022-11-24T01:52:15.871Z,100087.41
2022-11-24T01:57:40.919Z,100095.88
2022-11-24T02:03:01.794Z,100106.06
2022-11-24T02:08:53.200Z,100103.59
2022-11-24T02:14:18.008Z,100109.47
2022-11-24T02:19:52.964Z,100112.03
2022-11-24T02:25:19.291Z,100133.13
2022-11-24T02:30:40.253Z,100129.75
2022-11-24T02:36:00.924Z,100132.25
2022-11-24T02:41:25.197Z,100130.50
2022-11-24T02:46:46.457Z,100138.19
2022-11-24T02:52:07.232Z,100144.09
2022-11-24T02:57:27.773Z,100154.25
2022-11-24T03:02:48.126Z,100155.94
2022-11-24T03:08:08.823Z,100153.38
2022-11-24T03:13:29.601Z,100157.59
2022-11-24T03:18:53.831Z,100154.25
2022-11-24T03:24:14.416Z,100166.06
2022-11-24T03:29:34.667Z,100173.66
2022-11-24T03:34:55.096Z,100172.81
2022-11-24T03:40:15.970Z,100171.97
2022-11-24T03:45:52.386Z,100175.34
2022-11-24T03:51:13.013Z,100177.78
2022-11-24T03:56:33.614Z,100188.78
2022-11-24T04:01:54.022Z,100195.53
2022-11-24T04:07:14.876Z,100195.56
2022-11-24T04:12:44.265Z,100198.06
2022-11-24T04:18:04.916Z,100202.28
2022-11-24T04:23:25.719Z,100209.94
2022-11-24T04:28:46.217Z,100232.88
2022-11-24T04:34:06.652Z,100234.63
2022-11-24T04:39:28.581Z,100231.22
2022-11-24T04:44:49.704Z,100246.53
2022-11-24T04:50:10.420Z,100246.53
2022-11-24T04:55:30.646Z,100253.31
2022-11-24T05:00:51.357Z,100258.44
2022-11-24T05:06:12.009Z,100269.38
2022-11-24T05:11:34.056Z,100262.53
2022-11-24T05:16:54.545Z,100269.31
2022-11-24T05:22:15.214Z,100274.38
2022-11-24T05:27:35.479Z,100289.56
2022-11-24T05:32:57.014Z,100303.97
2022-11-24T05:38:18.091Z,100303.94
2022-11-24T05:43:38.871Z,100298.06
2022-11-24T05:48:59.562Z,100302.44
2022-11-24T05:54:19.959Z,100308.38
2022-11-24T05:59:40.290Z,100312.59
2022-11-24T06:05:00.817Z,100318.53
2022-11-24T06:10:23.829Z,100334.63
2022-11-24T06:15:44.227Z,100349.03
2022-11-24T06:21:11.289Z,100350.78
2022-11-24T06:26:32.647Z,100360.16
2022-11-24T06:31:53.148Z,100368.66
2022-11-24T06:37:13.900Z,100378.88
2022-11-24T06:42:35.014Z,100385.69
2022-11-24T06:47:56.587Z,100394.22
2022-11-24T06:53:17.633Z,100401.03
2022-11-24T06:58:43.150Z,100386.56
2022-11-24T07:04:04.433Z,100390.03
2022-11-24T07:09:24.674Z,100401.13
2022-11-24T07:14:45.391Z,100413.88
2022-11-24T07:20:07.241Z,100422.34
2022-11-24T07:25:28.029Z,100438.38
2022-11-24T07:30:48.390Z,100449.38
2022-11-24T07:36:09.611Z,100445.94
2022-11-24T07:41:30.279Z,100453.53
2022-11-24T07:46:51.342Z,100473.88
2022-11-24T07:52:11.878Z,100469.63
2022-11-24T07:57:32.411Z,100488.31
2022-11-24T08:02:53.555Z,100499.34
2022-11-24T08:08:14.057Z,100498.41
2022-11-24T08:13:35.944Z,100497.50
2022-11-24T08:18:56.641Z,100503.56
2022-11-24T08:24:17.498Z,100495.19
2022-11-24T08:29:37.942Z,100513.03
2022-11-24T08:35:13.043Z,100519.88
2022-11-24T08:40:34.942Z,100524.09
2022-11-24T08:46:00.358Z,100523.09
2022-11-24T08:51:23.658Z,100531.56
2022-11-24T08:56:44.842Z,100540.84
2022-11-24T09:02:06.422Z,100540.78
2022-11-24T09:07:27.525Z,100548.31
2022-11-24T09:12:48.350Z,100555.91
2022-11-24T09:18:09.178Z,100567.78
2022-11-24T09:23:29.679Z,100575.44
2022-11-24T09:28:54.236Z,100570.03
2022-11-24T09:34:15.711Z,100574.91
2022-11-24T09:39:36.519Z,100585.72
2022-11-24T09:45:35.441Z,100585.44
2022-11-24T09:51:03.578Z,100593.88
2022-11-24T09:56:27.949Z,100601.25
2022-11-24T10:01:50.411Z,100599.38
2022-11-24T10:07:38.121Z,100608.44
2022-11-24T10:13:30.317Z,100618.75
2022-11-24T10:19:14.389Z,100628.31
2022-11-24T10:25:03.255Z,100631.41
2022-11-24T10:30:26.464Z,100639.16
2022-11-24T10:35:53.252Z,100639.22
2022-11-24T10:41:22.557Z,100654.69
2022-11-24T10:46:43.626Z,100647.00
2022-11-24T10:52:12.494Z,100650.44
2022-11-24T10:57:36.025Z,100646.97
2022-11-24T11:03:18.323Z,100659.66
2022-11-24T11:08:38.722Z,100668.03
2022-11-24T11:14:04.944Z,100666.38
2022-11-24T11:20:01.777Z,100676.63
2022-11-24T11:25:24.405Z,100679.09
2022-11-24T11:31:17.878Z,100682.44
2022-11-24T11:36:45.479Z,100682.44
2022-11-24T11:42:53.897Z,100694.94
2022-11-24T11:48:44.790Z,100701.53
2022-11-24T11:54:08.419Z,100707.09
2022-11-24T11:59:46.781Z,100724.69
2022-11-24T12:05:28.824Z,100722.44
2022-11-24T12:10:57.542Z,100726.88
2022-11-24T12:16:39.744Z,100728.94
2022-11-24T12:22:40.346Z,100730.41
2022-11-24T12:28:00.986Z,100748.44
2022-11-24T12:33:47.538Z,100742.19
2022-11-24T12:39:20.223Z,100742.06
2022-11-24T12:44:55.610Z,100751.19
2022-11-24T12:50:18.542Z,100746.22
2022-11-24T12:55:40.864Z,100743.13
2022-11-24T13:01:28.384Z,100756.91
2022-11-24T13:07:12.176Z,100768.34
2022-11-24T13:12:33.047Z,100766.94
2022-11-24T13:18:10.228Z,100786.28
2022-11-24T13:23:32.364Z,100793.00
2022-11-24T13:29:23.783Z,100798.94
2022-11-24T13:34:45.808Z,100788.56
2022-11-24T13:40:13.090Z,100804.19
2022-11-24T13:45:39.700Z,100789.53
2022-11-24T13:51:01.452Z,100786.00
2022-11-24T13:56:25.280Z,100789.94
2022-11-24T14:01:57.075Z,100800.00
2022-11-24T14:07:17.615Z,100805.44
2022-11-24T14:12:38.262Z,100815.09
2022-11-24T14:17:58.917Z,100813.59
2022-11-24T14:23:19.551Z,100815.44
2022-11-24T14:28:40.954Z,100812.13
2022-11-24T14:34:21.953Z,100819.81
2022-11-24T14:39:43.078Z,100820.81
2022-11-24T14:45:04.322Z,100835.38
2022-11-24T14:50:24.898Z,100837.22
2022-11-24T14:55:45.323Z,100838.97
2022-11-24T15:01:27.635Z,100839.06
2022-11-24T15:07:00.513Z,100839.88
2022-11-24T15:12:28.725Z,100846.72
2022-11-24T15:17:53.699Z,100839.88
2022-11-24T15:23:33.205Z,100857.78
2022-11-24T15:28:53.737Z,100873.13
2022-11-24T15:34:14.549Z,100874.78
2022-11-24T15:39:34.752Z,100885.84
2022-11-24T15:44:55.454Z,100874.75
2022-11-24T15:50:16.143Z,100878.97
2022-11-24T15:55:36.617Z,100886.63
2022-11-24T16:00:57.560Z,100896.13
2022-11-24T16:06:24.647Z,100897.94
2022-11-24T16:11:45.627Z,100904.78
2022-11-24T16:17:06.322Z,100922.75
2022-11-24T16:22:26.981Z,100924.47
2022-11-24T16:27:47.583Z,100939.84
2022-11-24T16:33:08.036Z,100941.59
2022-11-24T16:38:28.453Z,100951.00
2022-11-24T16:43:49.223Z,100953.59
2022-11-24T16:49:10.231Z,100967.25
2022-11-24T16:54:31.483Z,100962.16
2022-11-24T16:59:52.001Z,100975.00
2022-11-24T17:05:12.402Z,100972.47
2022-11-24T17:10:32.818Z,100969.16
2022-11-24T17:15:54.469Z,100964.91
2022-11-24T17:21:17.555Z,100966.59
2022-11-24T17:26:38.498Z,100968.38
2022-11-24T17:31:58.876Z,100965.84
2022-11-24T17:37:19.309Z,100976.94
2022-11-24T17:42:39.934Z,100967.59
2022-11-24T17:48:01.009Z,100974.41
2022-11-24T17:53:21.697Z,100977.84
2022-11-24T17:58:43.474Z,100978.72
2022-11-24T18:04:04.541Z,100979.56
2022-11-24T18:09:24.883Z,100991.44
2022-11-24T18:14:45.808Z,100991.47
2022-11-24T18:20:07.302Z,100983.81
2022-11-24T18:25:28.053Z,100994.00
2022-11-24T18:30:49.345Z,100995.66
2022-11-24T18:36:13.635Z,101002.47
2022-11-24T18:41:35.096Z,100996.53
2022-11-24T18:46:55.747Z,101006.72
2022-11-24T18:52:16.314Z,100998.25
2022-11-24T18:57:36.965Z,101004.19
2022-11-24T19:02:58.402Z,101011.81
2022-11-24T19:08:18.869Z,101008.41
2022-11-24T19:13:39.844Z,101003.31
2022-11-24T19:19:02.427Z,101008.38
2022-11-24T19:24:23.109Z,101001.59
2022-11-24T19:29:44.031Z,101012.63
2022-11-24T19:35:05.451Z,101014.34
2022-11-24T19:40:26.002Z,101016.88
2022-11-24T19:45:46.651Z,101010.91
2022-11-24T19:51:11.765Z,101021.13
2022-11-24T19:56:37.044Z,101033.88
2022-11-24T20:01:58.021Z,101048.28
2022-11-24T20:07:20.609Z,101055.13
2022-11-24T20:12:41.055Z,101052.63
2022-11-24T20:18:01.803Z,101063.63
2022-11-24T20:23:22.524Z,101069.59
2022-11-24T20:28:43.029Z,101075.53
2022-11-24T20:34:05.158Z,101061.94
2022-11-24T20:39:27.637Z,101066.22
2022-11-24T20:44:47.966Z,101078.09
2022-11-24T20:50:08.960Z,101073.00
2022-11-24T20:55:31.843Z,101086.56
2022-11-24T21:00:53.107Z,101090.81
2022-11-24T21:06:14.286Z,101095.00
2022-11-24T21:11:35.225Z,101087.38
2022-11-24T21:16:55.665Z,101094.16
2022-11-24T21:22:16.359Z,101087.34
2022-11-24T21:27:37.148Z,101083.13
2022-11-24T21:32:57.485Z,101083.97
2022-11-24T21:38:18.002Z,101089.97
2022-11-24T21:43:38.614Z,101083.19
2022-11-24T21:48:59.613Z,101076.38
2022-11-24T21:54:19.973Z,101078.94
2022-11-24T21:59:40.776Z,101080.63
2022-11-24T22:05:01.739Z,101076.38
2022-11-24T22:10:22.102Z,101068.75
2022-11-24T22:15:43.129Z,101073.78
2022-11-24T22:21:05.250Z,101057.63
2022-11-24T22:26:26.826Z,101063.50
2022-11-24T22:31:47.322Z,101059.28
2022-11-24T22:37:08.154Z,101065.16
2022-11-24T22:42:28.607Z,101062.63
2022-11-24T22:47:53.821Z,101072.75
2022-11-24T22:53:14.316Z,101064.28
2022-11-24T22:58:34.807Z,101074.44
2022-11-24T23:03:55.634Z,101074.47
2022-11-24T23:09:15.954Z,101072.75
2022-11-24T23:14:36.750Z,101080.34
2022-11-24T23:19:57.109Z,101082.88
2022-11-24T23:25:17.450Z,101079.47
2022-11-24T23:30:38.019Z,101071.81
2022-11-24T23:36:02.701Z,101060.78
2022-11-24T23:41:25.541Z,101053.13
2022-11-24T23:46:45.917Z,101059.06
2022-11-24T23:52:06.933Z,101042.09
